Thunder radar more information blitzortung!


avis per Pluja more information rain snow radar


Visita la nostra xarxa de llocs de meteo:

Template documentation
and downloads

And another site



Rain From: 17-10-2018 23:00 Until: 18-10-2018 16:59 warning for: Rain Level: Yellow info button

Pagina Historial Weather Underground text

Diari Resum May 18, 2016 Unitats:  Mètric    Imperial   Tant
« Previous Dia
SegĂźent Dia »
Diari Setmana Mensual Anual Personalitzada
  Maxima: Minima: Media:
Temperatura: -17.8 °C -12.1 °C -7.2 °C
Punt de rosada: -17.8 °C -13.7 °C -11.1 °C
Humitat: Humidity % 51 % 65 %
Wind Speed: 0 km/h 0 km/h 16.3 km/h
RĂ fegues de vent: 0 km/h - -
Vent:- - SSW
Pression baro: 0 hPa 34293.4 hPa -
Precipitacions: 58.42 mm    
Historical Graphs
 
 
Dades de taula per May 18, 2016
Temps Temperatura Punt de rosada Pression baro Vent Wind Speed RĂ fegues de vent Humitat Rainfall Rate (Hourly)
-17.8 °C -17.8 °C 0 hPa Calm     Humidity % 0 mm
00:04 -10.1 °C -12.6 °C 34496.6 hPa Calm     74 % 0 mm
00:05 -11.5 °C -13.3 °C 34428.8 hPa SW 5.1 km/h 5.1 km/h 80 % 0 mm
00:09 -10.1 °C -12.6 °C 34496.6 hPa Calm     74 % 0 mm
00:14 -10.1 °C -12.4 °C 34496.6 hPa Calm     75 % 0 mm
00:15 -11.6 °C -13.4 °C 34428.8 hPa SW 2.6 km/h 5.1 km/h 80 % 0 mm
00:25 -11.4 °C -13.3 °C 34395 hPa WSW 2.6 km/h 5.1 km/h 80 % 0 mm
00:35 -11.6 °C -13.3 °C 34395 hPa Calm   5.1 km/h 81 % 0 mm
00:45 -11.6 °C -13.2 °C 34428.8 hPa Calm     82 % 0 mm
00:55 -11.6 °C -13.2 °C 34395 hPa Calm     82 % 0 mm
01:05 -11.6 °C -13.1 °C 34395 hPa NW 2.6 km/h 2.6 km/h 83 % 0 mm
01:15 -11.8 °C -13.5 °C 34395 hPa NNW 5.1 km/h 5.1 km/h 81 % 0 mm
01:25 -11.9 °C -13.6 °C 34395 hPa WSW 5.1 km/h 7.7 km/h 81 % 0 mm
01:35 -12 °C -13.7 °C 34395 hPa SW 5.1 km/h 7.7 km/h 82 % 0 mm
01:45 -12.1 °C -13.6 °C 34395 hPa SW 5.1 km/h 5.1 km/h 83 % 0 mm
01:55 -12 °C -13.6 °C 34428.8 hPa SW 2.6 km/h 5.1 km/h 83 % 0 mm
02:05 -12 °C -13.6 °C 34428.8 hPa Calm     83 % 0 mm
02:15 -11.9 °C -13.5 °C 34428.8 hPa Calm   5.1 km/h 83 % 0 mm
02:25 -11.8 °C -13.3 °C 34428.8 hPa Calm     84 % 0 mm
02:35 -11.7 °C -13.3 °C 34428.8 hPa Calm     83 % 0 mm
02:45 -11.6 °C -13.1 °C 34428.8 hPa ENE 2.6 km/h 2.6 km/h 83 % 0 mm
02:55 -11.2 °C -12.9 °C 34462.7 hPa Calm   5.1 km/h 82 % 0 mm
03:05 -11 °C -12.7 °C 34462.7 hPa Calm   5.1 km/h 81 % 0 mm
03:15 -10.6 °C -12.4 °C 34462.7 hPa Calm     80 % 0 mm
03:25 -10.3 °C -12.3 °C 34428.8 hPa Calm   2.6 km/h 79 % 0 mm
03:35 -10.1 °C -12.2 °C 34428.8 hPa ENE 2.6 km/h 5.1 km/h 78 % 0 mm
03:45 -9.9 °C -12 °C 34462.7 hPa South 2.6 km/h   78 % 0 mm
03:55 -9.9 °C -12.1 °C 34462.7 hPa Calm   2.6 km/h 77 % 0 mm
04:05 -10.1 °C -12.3 °C 34462.7 hPa ENE 2.6 km/h 5.1 km/h 77 % 0 mm
04:15 -9.7 °C -12.1 °C 34462.7 hPa NE 2.6 km/h 5.1 km/h 76 % 0 mm
04:25 -9.3 °C -11.6 °C 34462.7 hPa NE 2.6 km/h 5.1 km/h 76 % 0 mm
04:35 -8.8 °C -11.3 °C 34462.7 hPa ENE 2.6 km/h 5.1 km/h 75 % 0 mm
04:45 -8.8 °C -11.4 °C 34462.7 hPa SSW 5.1 km/h 10.3 km/h 74 % 0 mm
04:55 -8.4 °C -11.2 °C 34462.7 hPa SW 5.1 km/h 7.7 km/h 73 % 0 mm
05:05 -8 °C -11.1 °C 34462.7 hPa SW 7.7 km/h 7.7 km/h 70 % 0 mm
05:15 -7.9 °C -10.9 °C 34462.7 hPa SSW 2.6 km/h 12.9 km/h 70 % 0 mm
05:35 -7.7 °C -11 °C 34462.7 hPa WSW 5.1 km/h 12.9 km/h 68 % 0 mm
05:45 -7.2 °C -10.7 °C 34428.8 hPa WSW 5.1 km/h 7.7 km/h 67 % 0 mm
05:55 -6.8 °C -10.4 °C 34428.8 hPa WSW 2.6 km/h 10.3 km/h 66 % 0 mm
11:01 -6.7 °C -10.7 °C 34428.8 hPa SSW 15 km/h 15 km/h 63 % 0 mm
11:06 -6.6 °C -10.7 °C 34395 hPa WSW 11.9 km/h 11.9 km/h 63 % 0 mm
11:11 -6.5 °C -10.6 °C 34395 hPa WSW 11.9 km/h 11.9 km/h 63 % 0 mm
11:16 -6.4 °C -10.8 °C 34395 hPa SSW 17.9 km/h 17.9 km/h 61 % 0 mm
11:21 -6.6 °C -10.9 °C 34428.8 hPa SW 17.9 km/h 17.9 km/h 61 % 0 mm
11:26 -6.5 °C -10.9 °C 34428.8 hPa SW 18.3 km/h 18.3 km/h 60 % 0 mm
11:31 -6.4 °C -10.9 °C 34428.8 hPa SSW 16.1 km/h 16.1 km/h 60 % 0 mm
11:36 -6.3 °C -10.9 °C 34428.8 hPa WSW 23.8 km/h 23.8 km/h 59 % 0 mm
11:41 -6.1 °C -10.6 °C 34428.8 hPa SW 11.9 km/h 11.9 km/h 60 % 0 mm
11:46 -6.3 °C -10.9 °C 34428.8 hPa SSW 11.9 km/h 11.9 km/h 59 % 0 mm
11:51 -6 °C -10.8 °C 34395 hPa SW 11.9 km/h 11.9 km/h 58 % 0 mm
11:56 -6 °C -10.8 °C 34395 hPa SW 17.9 km/h 17.9 km/h 58 % 0 mm
12:01 -5.9 °C -10.9 °C 34395 hPa SSW 17.9 km/h 17.9 km/h 57 % 0 mm
12:06 -5.8 °C -10.7 °C 34395 hPa WSW 16.6 km/h 16.6 km/h 57 % 0 mm
12:11 -5.7 °C -10.7 °C 34395 hPa NW 6.3 km/h 7.6 km/h 57 % 0 mm
12:16 -5.8 °C -10.9 °C 34395 hPa SW 23.8 km/h 23.8 km/h 56 % 0 mm
12:21 -5.7 °C -10.9 °C 34395 hPa SW 17.9 km/h 17.9 km/h 55 % 0 mm
12:26 -5.6 °C -10.7 °C 34395 hPa WSW 16.1 km/h 17.4 km/h 56 % 0 mm
12:31 -5.7 °C -10.9 °C 34395 hPa SSW 20.9 km/h 20.9 km/h 55 % 0 mm
12:36 -5.7 °C -10.8 °C 34395 hPa SW 20.9 km/h 20.9 km/h 56 % 0 mm
12:41 -5.3 °C -10.6 °C 34395 hPa SSW 20.9 km/h 20.9 km/h 55 % 0 mm
12:46 -5.3 °C -10.6 °C 34395 hPa SW 22 km/h 22 km/h 55 % 0 mm
12:51 -5.4 °C -10.9 °C 34395 hPa SW 26.9 km/h 26.9 km/h 54 % 0 mm
12:56 -5.4 °C -10.8 °C 34395 hPa SW 17.9 km/h 17.9 km/h 54 % 0 mm
13:01 -5.3 °C -10.8 °C 34395 hPa WSW 12.7 km/h 12.7 km/h 54 % 0 mm
13:06 -5.1 °C -10.4 °C 34395 hPa SSW 26.4 km/h 26.4 km/h 55 % 0 mm
13:11 -5.2 °C -10.7 °C 34395 hPa SSW 26.9 km/h 26.9 km/h 54 % 0 mm
13:16 -5.3 °C -10.9 °C 34395 hPa SSW 20.9 km/h 20.9 km/h 53 % 0 mm
13:21 -5.5 °C -11.1 °C 34361.1 hPa SW 23.8 km/h 23.8 km/h 53 % 0 mm
13:31 -5.2 °C -10.6 °C 34361.1 hPa SSW 23.8 km/h 23.8 km/h 54 % 0 mm
13:36 -5 °C -10.8 °C 34395 hPa SW 17.9 km/h 17.9 km/h 52 % 0 mm
13:41 -4.8 °C -10.8 °C 34395 hPa SSW 23.8 km/h 23.8 km/h 51 % 0 mm
13:46 -4.8 °C -10.6 °C 34395 hPa SSW 23.8 km/h 23.8 km/h 52 % 0 mm
13:51 -5 °C -10.9 °C 34361.1 hPa SSW 23.8 km/h 23.8 km/h 51 % 0 mm
13:56 -5.1 °C -10.7 °C 34361.1 hPa SSW 29.8 km/h 29.8 km/h 53 % 0 mm
14:01 -4.8 °C -10.6 °C 34361.1 hPa WSW 20.9 km/h 20.9 km/h 52 % 0 mm
14:06 -4.9 °C -10.7 °C 34361.1 hPa SSW 23.8 km/h 23.8 km/h 52 % 0 mm
14:11 -4.8 °C -10.4 °C 34361.1 hPa WSW 20.9 km/h 20.9 km/h 53 % 0 mm
14:21 -4.8 °C -10.4 °C 34361.1 hPa SW 26.9 km/h 26.9 km/h 53 % 0 mm
14:26 -4.6 °C -10.2 °C 34361.1 hPa SW 20.9 km/h 20.9 km/h 53 % 0 mm
14:31 -5 °C -10.6 °C 34361.1 hPa SSW 29.8 km/h 29.8 km/h 53 % 0 mm
14:41 -4.9 °C -10.3 °C 34361.1 hPa SSW 15 km/h 15 km/h 54 % 0 mm
14:46 -4.8 °C -10.4 °C 34361.1 hPa SW 23.8 km/h 23.8 km/h 53 % 0 mm
14:51 -4.8 °C -10.3 °C 34361.1 hPa SW 23.8 km/h 23.8 km/h 54 % 0 mm
14:56 -4.9 °C -10.4 °C 34361.1 hPa SSW 20.9 km/h 20.9 km/h 54 % 0 mm
15:01 -4.8 °C -10.3 °C 34361.1 hPa SW 23.8 km/h 23.8 km/h 54 % 0 mm
15:06 -4.7 °C -10.2 °C 34327.3 hPa SSW 11.9 km/h 12.7 km/h 54 % 0 mm
15:11 -5 °C -10.4 °C 34327.3 hPa SW 26.9 km/h 26.9 km/h 54 % 0 mm
15:16 -5 °C -10.4 °C 34327.3 hPa SSW 17.9 km/h 17.9 km/h 54 % 0 mm
15:21 -5.1 °C -10.5 °C 34327.3 hPa NE 29.8 km/h 29.8 km/h 54 % 0 mm
15:26 -5.2 °C -10.7 °C 34327.3 hPa WSW 38.8 km/h 38.8 km/h 54 % 0 mm
15:36 -5 °C -10.6 °C 34327.3 hPa SW 20.9 km/h 20.9 km/h 53 % 0 mm
15:41 -5.2 °C -10.6 °C 34327.3 hPa SSW 24.3 km/h 24.3 km/h 54 % 0 mm
15:46 -5.1 °C -10.6 °C 34327.3 hPa WSW 20.9 km/h 20.9 km/h 54 % 0 mm
15:51 -4.9 °C -10.4 °C 34293.4 hPa SSW 20.9 km/h 20.9 km/h 54 % 0 mm
15:56 -4.7 °C -10.3 °C 34293.4 hPa SW 25.9 km/h 25.9 km/h 53 % 0 mm
16:01 -5.1 °C -10.6 °C 34293.4 hPa SW 23.8 km/h 23.8 km/h 54 % 0 mm
16:06 -5.1 °C -10.6 °C 34327.3 hPa East 26.9 km/h 26.9 km/h 54 % 0 mm
16:11 -5.1 °C -10.7 °C 34327.3 hPa West 26.9 km/h 26.9 km/h 53 % 0 mm
16:16 -5.2 °C -10.8 °C 34327.3 hPa WSW 26.9 km/h 26.9 km/h 53 % 0 mm
16:17 -5.2 °C -10.8 °C 34327.3 hPa WSW 26.9 km/h 26.9 km/h 53 % 0 mm
16:22 -5.3 °C -10.7 °C 34327.3 hPa WSW 35.7 km/h 35.7 km/h 54 % 0 mm
16:27 -5 °C -10.6 °C 34327.3 hPa SW 29.8 km/h 29.8 km/h 53 % 0 mm
16:32 -4.9 °C -10.5 °C 34327.3 hPa South 23.8 km/h 23.8 km/h 53 % 0 mm
16:37 -4.7 °C -10.3 °C 34327.3 hPa West 17.9 km/h 17.9 km/h 53 % 0 mm
16:42 -5 °C -10.6 °C 34327.3 hPa SSW 15 km/h 15 km/h 53 % 0 mm
16:47 -4.8 °C -10.4 °C 34327.3 hPa WSW 26.9 km/h 26.9 km/h 53 % 0 mm
16:52 -5.2 °C -10.7 °C 34327.3 hPa SSW 26.9 km/h 26.9 km/h 54 % 0 mm
16:57 -5.4 °C -10.9 °C 34327.3 hPa WSW 29.8 km/h 29.8 km/h 54 % 0 mm
17:02 -5.6 °C -10.7 °C 34327.3 hPa West 20.9 km/h 20.9 km/h 56 % 0 mm
17:07 -5.8 °C -10.9 °C 34327.3 hPa SW 26.9 km/h 26.9 km/h 56 % 0 mm
17:12 -5.9 °C -10.8 °C 34327.3 hPa WSW 23.8 km/h 23.8 km/h 57 % 0 mm
17:17 -6 °C -10.9 °C 34327.3 hPa SW 26.9 km/h 26.9 km/h 57 % 0 mm
17:22 -5.9 °C -10.9 °C 34327.3 hPa SW 20.9 km/h 20.9 km/h 57 % 0 mm
17:27 -6.1 °C -10.8 °C 34327.3 hPa SW 26.9 km/h 26.9 km/h 58 % 0 mm
17:32 -6.2 °C -10.8 °C 34327.3 hPa SSW 35.7 km/h 35.7 km/h 59 % 0 mm
17:37 -6.6 °C -11 °C 34327.3 hPa West 29.8 km/h 29.8 km/h 60 % 0 mm
17:42 -6.6 °C -10.9 °C 34327.3 hPa WSW 23.8 km/h 23.8 km/h 61 % 0 mm
17:47 -6.6 °C -10.7 °C 34327.3 hPa SW 29.8 km/h 29.8 km/h 62 % 0 mm
17:52 -6.4 °C -10.6 °C 34327.3 hPa SW 23.8 km/h 23.8 km/h 62 % 0 mm
17:57 -6.2 °C -10.4 °C 34327.3 hPa WSW 30.6 km/h 30.6 km/h 62 % 0 mm
18:02 -6.1 °C -10.4 °C 34327.3 hPa SW 23.8 km/h 23.8 km/h 61 % 0 mm
18:07 -6.3 °C -10.4 °C 34327.3 hPa WSW 26.9 km/h 26.9 km/h 62 % 0 mm
18:12 -6.2 °C -10.5 °C 34327.3 hPa SW 34.1 km/h 34.1 km/h 61 % 0 mm
18:17 -6.3 °C -10.5 °C 34327.3 hPa WSW 26.9 km/h 26.9 km/h 62 % 0 mm
18:22 -6.4 °C -10.6 °C 34327.3 hPa SW 41.7 km/h 41.7 km/h 62 % 0 mm
18:27 -6.4 °C -10.6 °C 34327.3 hPa SSW 44.7 km/h 44.7 km/h 62 % 0 mm
18:32 -6.5 °C -10.6 °C 34327.3 hPa WSW 29.8 km/h 29.8 km/h 63 % 0 mm
18:37 -6.6 °C -10.6 °C 34293.4 hPa SW 35.7 km/h 35.7 km/h 63 % 0 mm
18:42 -6.7 °C -10.7 °C 34293.4 hPa SW 32.8 km/h 32.8 km/h 63 % 0 mm
18:47 -6.7 °C -10.5 °C 34293.4 hPa SW 32.8 km/h 32.8 km/h 65 % 0 mm
18:52 -6.7 °C -10.5 °C 34293.4 hPa SW 38.8 km/h 38.8 km/h 65 % 0 mm
18:57 -6.8 °C -10.5 °C 34293.4 hPa SSW 32.8 km/h 32.8 km/h 65 % 0 mm
19:02 -6.8 °C -10.6 °C 34293.4 hPa SSW 29.8 km/h 29.8 km/h 65 % 0 mm
19:07 -6.9 °C -10.6 °C 34293.4 hPa SSW 32.8 km/h 32.8 km/h 66 % 0 mm
19:12 -7 °C -10.6 °C 34293.4 hPa SW 26.9 km/h 26.9 km/h 66 % 0 mm
19:17 -7.1 °C -10.7 °C 34293.4 hPa SW 26.9 km/h 26.9 km/h 66 % 0 mm
19:22 -7 °C -10.6 °C 34293.4 hPa WSW 20.9 km/h 20.9 km/h 66 % 0 mm
19:27 -6.9 °C -10.5 °C 34293.4 hPa SSW 9.8 km/h 9.8 km/h 66 % 0 mm
19:32 -6.9 °C -10.5 °C 34293.4 hPa SW 17.9 km/h 17.9 km/h 66 % 0 mm
19:37 -6.9 °C -10.5 °C 34293.4 hPa SSW 15 km/h 15 km/h 66 % 0 mm
19:42 -7 °C -10.6 °C 34293.4 hPa SW 20.3 km/h 20.3 km/h 66 % 0 mm
19:47 -6.9 °C -10.6 °C 34293.4 hPa SW 11.9 km/h 11.9 km/h 66 % 0 mm
19:52 -6.9 °C -10.5 °C 34327.3 hPa WSW 9 km/h 9 km/h 66 % 0 mm
19:57 -6.9 °C -10.5 °C 34327.3 hPa SW 12.7 km/h 12.7 km/h 66 % 0 mm
20:02 -6.9 °C -10.6 °C 34327.3 hPa SSW 17.9 km/h 17.9 km/h 66 % 0 mm
20:07 -6.9 °C -10.6 °C 34327.3 hPa SSW 11.9 km/h 11.9 km/h 66 % 0 mm
20:12 -7 °C -10.6 °C 34327.3 hPa WSW 15 km/h 15 km/h 66 % 0 mm
20:17 -7 °C -10.6 °C 34327.3 hPa SW 9 km/h 9 km/h 66 % 0 mm
20:22 -7.1 °C -10.6 °C 34327.3 hPa SSW 20.9 km/h 20.9 km/h 67 % 0 mm
20:27 -7.1 °C -10.6 °C 34327.3 hPa WSW 3.1 km/h 3.1 km/h 67 % 0 mm
20:32 -7.1 °C -10.7 °C 34327.3 hPa WSW 9 km/h 9 km/h 66 % 0 mm
20:42 -7.2 °C -10.7 °C 34327.3 hPa SSW 11.9 km/h 11.9 km/h 67 % 0 mm
20:47 -7.2 °C -10.7 °C 34327.3 hPa SW 6 km/h 6 km/h 67 % 0 mm
20:52 -7.3 °C -10.6 °C 34327.3 hPa SW 6 km/h 6.8 km/h 68 % 0 mm
20:57 -7.3 °C -10.7 °C 34327.3 hPa South 3.1 km/h   68 % 0 mm
21:02 -7.3 °C -10.7 °C 34327.3 hPa ENE 14.5 km/h 15.3 km/h 68 % 0 mm
21:07 -7.2 °C -10.8 °C 34327.3 hPa ESE 17.9 km/h 17.9 km/h 66 % 0 mm
21:12 -7.2 °C -10.8 °C 34327.3 hPa NE 15 km/h 15 km/h 66 % 0 mm
21:17 -7.3 °C -10.8 °C 34327.3 hPa East 11.9 km/h 11.9 km/h 67 % 0 mm
21:22 -7.3 °C -10.8 °C 34361.1 hPa ENE 11.9 km/h 11.9 km/h 67 % 0 mm
21:27 -7.3 °C -10.8 °C 34361.1 hPa ESE 15 km/h 15 km/h 67 % 0 mm
21:32 -7.5 °C -10.8 °C 34361.1 hPa ESE 15 km/h 15 km/h 68 % 0 mm
21:37 -7.6 °C -10.8 °C 34361.1 hPa ESE 12.2 km/h 12.2 km/h 69 % 0 mm
21:42 -7.7 °C -10.9 °C 34361.1 hPa SE 6 km/h 6 km/h 69 % 0 mm
21:52 -7.8 °C -10.9 °C 34361.1 hPa ESE 8.5 km/h 8.5 km/h 70 % 0 mm
21:57 -7.8 °C -10.8 °C 34361.1 hPa ENE 15 km/h 15 km/h 71 % 0 mm
22:02 -7.9 °C -10.9 °C 34361.1 hPa NNE 6 km/h 6 km/h 71 % 0 mm
22:07 -7.9 °C -10.7 °C 34361.1 hPa ENE 6 km/h 7.6 km/h 72 % 0 mm
22:12 -7.9 °C -10.8 °C 34361.1 hPa ESE 14 km/h 14 km/h 72 % 0 mm
22:17 -7.9 °C -10.8 °C 34361.1 hPa East 9.8 km/h 9.8 km/h 72 % 0 mm
22:23 -7.9 °C -10.8 °C 34395 hPa NE 11.9 km/h 11.9 km/h 72 % 0 mm
22:28 -7.9 °C -10.8 °C 34395 hPa NE 9.3 km/h 9.3 km/h 72 % 0 mm
22:33 -8 °C -10.7 °C 34395 hPa NNE 12.7 km/h 12.7 km/h 73 % 0 mm
22:38 -8 °C -10.6 °C 34395 hPa East 11.9 km/h 11.9 km/h 74 % 0 mm
22:53 -8.2 °C -10.9 °C 34395 hPa NE 19.6 km/h 19.6 km/h 73 % 0 mm
23:03 -8.4 °C -10.8 °C 34395 hPa ESE 11.9 km/h 14.5 km/h 76 % 25.4 mm
23:08 -8.7 °C -10.7 °C 34395 hPa ESE 11.9 km/h 14.5 km/h 79 % 58.42 mm
23:19 -8.8 °C -10.7 °C 34395 hPa ENE 9.8 km/h 9.8 km/h 80 % 58.42 mm
23:24 -8.9 °C -10.8 °C 34395 hPa ENE 9.8 km/h 9.8 km/h 80 % 58.42 mm
23:29 -8.9 °C -10.7 °C 34395 hPa ENE 9.8 km/h 9.8 km/h 81 % 58.42 mm
23:39 -8.9 °C -10.6 °C 34395 hPa ENE 9.8 km/h 9.8 km/h 82 % 58.42 mm
23:44 -8.9 °C -10.6 °C 34395 hPa ENE 9.8 km/h 9.8 km/h 82 % 58.42 mm
23:54 -8.9 °C -10.5 °C 34395 hPa ENE 9.8 km/h 9.8 km/h 83 % 58.42 mm
23:59 -8.9 °C -10.6 °C 34395 hPa ENE 9.8 km/h 9.8 km/h 82 % 58.42 mm
Meteo Sesrovires
Elogis d' Weather Underground - 1.5 mb

Guio original per  Jim McMurry - jmcmurry@mwt.net Adaptat per a la plantilla per  Wim van der Kuil - Leuven-Template.eu

Trobareu la nostra informacio del temps tambe a:

Weather Underground

AWEKAS